Аэропорт: Храброво. Калининград

ICAO: UMKK

METAR:
2021-01-20 03:00:00
UMKK 200300Z 14006MPS 3800 -SN BR BKN009 OVC019 M06/M08 Q1006 R24/810193 NOSIG RMK QFE753/1004
METAR:
2021-01-20 01:57:00
TAF UMKK 200157Z 2003/2103 14006G11MPS 3100 -SN BR BKN007 OVC016 TEMPO 2003/2010 1600 SN OVC003 FM201000 16006G11MPS 3100 -RASN BR FEW004 BKN010 FM201200 20006G12MPS 4000 -RA BR FEW006 BKN011 BECMG 2015/2017 22007G12MPS BECMG 2018/2020 6000 NSW BKN016